Arendahl, Minnesota
Current Conditions -  °F | °C
As of 7:35 PM on Saturday 25 Oct 2014 (Local Time) from KFKA Reporting Station
Clear Clear  
Wind Chill: 47°   Ceiling: Unl
Heat Index: 49°   Visibility: 10mi
Dew Point: 32°   Wind: 7mph
Humidity: 51%   Direction: 300°WNW
Pressure: 30.05"   Gusts: NA
Location:  43.7298°N, 91.8267°W
Report Text: KFKA 260035Z AUTO 30006KT 10SM CLR 10/00 A3005 RMK AO2 T00970000
Loading
Personal Weather Stations






























Interactive Weather Map New forecast layout! Learn more

10-Day Weather Forecast

Advertisements
Track Severe Weather on mobile